sensor_id;sensor_type;location;lat;lon;timestamp;temperature;humidity
77467;DHT22;66564;42.482;25.548;2024-03-07T00:00:42;7.64;70.62
77467;DHT22;66564;42.482;25.548;2024-03-07T00:03:08;7.71;70.37
77467;DHT22;66564;42.482;25.548;2024-03-07T00:05:33;7.73;70.40
77467;DHT22;66564;42.482;25.548;2024-03-07T00:07:59;7.66;70.62
77467;DHT22;66564;42.482;25.548;2024-03-07T00:10:24;7.66;70.72
77467;DHT22;66564;42.482;25.548;2024-03-07T00:12:50;7.60;70.75
77467;DHT22;66564;42.482;25.548;2024-03-07T00:15:15;7.60;70.99
77467;DHT22;66564;42.482;25.548;2024-03-07T00:17:41;7.66;70.85
77467;DHT22;66564;42.482;25.548;2024-03-07T00:20:07;7.61;70.90
77467;DHT22;66564;42.482;25.548;2024-03-07T00:22:43;7.57;71.08
77467;DHT22;66564;42.482;25.548;2024-03-07T00:25:09;7.60;70.90
77467;DHT22;66564;42.482;25.548;2024-03-07T00:27:37;7.59;71.01
77467;DHT22;66564;42.482;25.548;2024-03-07T00:30:04;7.59;70.99
77467;DHT22;66564;42.482;25.548;2024-03-07T00:32:30;7.64;70.64
77467;DHT22;66564;42.482;25.548;2024-03-07T00:35:02;7.61;70.68
77467;DHT22;66564;42.482;25.548;2024-03-07T00:37:30;7.61;70.59
77467;DHT22;66564;42.482;25.548;2024-03-07T00:39:58;7.60;70.50
77467;DHT22;66564;42.482;25.548;2024-03-07T00:42:24;7.51;70.68
77467;DHT22;66564;42.482;25.548;2024-03-07T00:44:55;7.49;70.91
77467;DHT22;66564;42.482;25.548;2024-03-07T00:47:20;7.54;70.93
77467;DHT22;66564;42.482;25.548;2024-03-07T00:49:46;7.46;70.74
77467;DHT22;66564;42.482;25.548;2024-03-07T00:52:14;7.51;70.68
77467;DHT22;66564;42.482;25.548;2024-03-07T00:54:43;7.39;70.71
77467;DHT22;66564;42.482;25.548;2024-03-07T00:57:11;7.30;70.77
77467;DHT22;66564;42.482;25.548;2024-03-07T00:59:37;7.34;70.68
77467;DHT22;66564;42.482;25.548;2024-03-07T01:02:02;7.31;70.46
77467;DHT22;66564;42.482;25.548;2024-03-07T01:04:31;7.17;70.92
77467;DHT22;66564;42.482;25.548;2024-03-07T01:06:58;7.16;71.11
77467;DHT22;66564;42.482;25.548;2024-03-07T01:09:27;7.20;71.06
77467;DHT22;66564;42.482;25.548;2024-03-07T01:11:54;7.23;70.85
77467;DHT22;66564;42.482;25.548;2024-03-07T01:14:20;7.13;71.06
77467;DHT22;66564;42.482;25.548;2024-03-07T01:16:46;7.19;71.06
77467;DHT22;66564;42.482;25.548;2024-03-07T01:19:15;7.17;71.14
77467;DHT22;66564;42.482;25.548;2024-03-07T01:21:40;7.00;71.58
77467;DHT22;66564;42.482;25.548;2024-03-07T01:24:09;7.06;71.52
77467;DHT22;66564;42.482;25.548;2024-03-07T01:26:34;7.17;71.32
77467;DHT22;66564;42.482;25.548;2024-03-07T01:29:00;7.17;71.02
77467;DHT22;66564;42.482;25.548;2024-03-07T01:31:28;7.17;70.84
77467;DHT22;66564;42.482;25.548;2024-03-07T01:33:54;7.13;71.09
77467;DHT22;66564;42.482;25.548;2024-03-07T01:36:19;7.02;71.57
77467;DHT22;66564;42.482;25.548;2024-03-07T01:38:47;7.12;71.57
77467;DHT22;66564;42.482;25.548;2024-03-07T01:41:13;7.16;71.23
77467;DHT22;66564;42.482;25.548;2024-03-07T01:43:40;7.22;71.06
77467;DHT22;66564;42.482;25.548;2024-03-07T01:46:05;7.09;70.85
77467;DHT22;66564;42.482;25.548;2024-03-07T01:48:31;7.15;70.93
77467;DHT22;66564;42.482;25.548;2024-03-07T01:50:59;7.07;70.92
77467;DHT22;66564;42.482;25.548;2024-03-07T01:53:28;6.93;71.01
77467;DHT22;66564;42.482;25.548;2024-03-07T01:55:54;6.79;71.57
77467;DHT22;66564;42.482;25.548;2024-03-07T01:58:23;6.73;71.87
77467;DHT22;66564;42.482;25.548;2024-03-07T02:00:52;6.64;72.05
77467;DHT22;66564;42.482;25.548;2024-03-07T02:03:18;6.65;72.20
77467;DHT22;66564;42.482;25.548;2024-03-07T02:05:44;6.65;72.33
77467;DHT22;66564;42.482;25.548;2024-03-07T02:08:10;6.67;72.31
77467;DHT22;66564;42.482;25.548;2024-03-07T02:10:41;6.76;72.15
77467;DHT22;66564;42.482;25.548;2024-03-07T02:13:06;6.72;72.28
77467;DHT22;66564;42.482;25.548;2024-03-07T02:15:32;6.82;71.92
77467;DHT22;66564;42.482;25.548;2024-03-07T02:18:00;6.88;71.70
77467;DHT22;66564;42.482;25.548;2024-03-07T02:20:26;6.86;71.57
77467;DHT22;66564;42.482;25.548;2024-03-07T02:22:54;6.95;71.29
77467;DHT22;66564;42.482;25.548;2024-03-07T02:25:25;6.79;71.63
77467;DHT22;66564;42.482;25.548;2024-03-07T02:27:53;6.68;72.03
77467;DHT22;66564;42.482;25.548;2024-03-07T02:30:18;6.79;71.79
77467;DHT22;66564;42.482;25.548;2024-03-07T02:32:51;6.89;71.45
77467;DHT22;66564;42.482;25.548;2024-03-07T02:35:20;6.93;71.21
77467;DHT22;66564;42.482;25.548;2024-03-07T02:37:48;6.93;71.23
77467;DHT22;66564;42.482;25.548;2024-03-07T02:40:14;6.89;71.27
77467;DHT22;66564;42.482;25.548;2024-03-07T02:42:43;6.88;71.32
77467;DHT22;66564;42.482;25.548;2024-03-07T02:45:08;6.93;71.18
77467;DHT22;66564;42.482;25.548;2024-03-07T02:47:35;7.02;70.77
77467;DHT22;66564;42.482;25.548;2024-03-07T02:50:03;6.83;71.26
77467;DHT22;66564;42.482;25.548;2024-03-07T02:52:29;6.71;71.90
77467;DHT22;66564;42.482;25.548;2024-03-07T02:54:54;6.64;72.10
77467;DHT22;66564;42.482;25.548;2024-03-07T02:57:28;6.69;71.88
77467;DHT22;66564;42.482;25.548;2024-03-07T02:59:57;6.67;71.88
77467;DHT22;66564;42.482;25.548;2024-03-07T03:02:22;6.59;72.18
77467;DHT22;66564;42.482;25.548;2024-03-07T03:04:48;6.65;72.10
77467;DHT22;66564;42.482;25.548;2024-03-07T03:07:16;6.58;72.30
77467;DHT22;66564;42.482;25.548;2024-03-07T03:09:42;6.69;72.12
77467;DHT22;66564;42.482;25.548;2024-03-07T03:12:11;6.65;72.07
77467;DHT22;66564;42.482;25.548;2024-03-07T03:14:37;6.75;71.98
77467;DHT22;66564;42.482;25.548;2024-03-07T03:17:03;6.76;71.80
77467;DHT22;66564;42.482;25.548;2024-03-07T03:19:28;6.81;71.56
77467;DHT22;66564;42.482;25.548;2024-03-07T03:21:54;6.83;71.38
77467;DHT22;66564;42.482;25.548;2024-03-07T03:24:24;6.69;71.69
77467;DHT22;66564;42.482;25.548;2024-03-07T03:26:50;6.62;71.82
77467;DHT22;66564;42.482;25.548;2024-03-07T03:29:16;6.51;72.15
77467;DHT22;66564;42.482;25.548;2024-03-07T03:31:43;6.51;72.33
77467;DHT22;66564;42.482;25.548;2024-03-07T03:34:08;6.51;72.29
77467;DHT22;66564;42.482;25.548;2024-03-07T03:36:35;6.48;72.03
77467;DHT22;66564;42.482;25.548;2024-03-07T03:39:00;6.51;72.20
77467;DHT22;66564;42.482;25.548;2024-03-07T03:41:29;6.52;72.05
77467;DHT22;66564;42.482;25.548;2024-03-07T03:43:55;6.52;71.85
77467;DHT22;66564;42.482;25.548;2024-03-07T03:46:22;6.52;72.04
77467;DHT22;66564;42.482;25.548;2024-03-07T03:48:53;6.53;71.92
77467;DHT22;66564;42.482;25.548;2024-03-07T03:51:19;6.38;71.80
77467;DHT22;66564;42.482;25.548;2024-03-07T03:53:47;6.34;72.37
77467;DHT22;66564;42.482;25.548;2024-03-07T03:56:12;6.48;71.95
77467;DHT22;66564;42.482;25.548;2024-03-07T03:58:39;6.46;71.97
77467;DHT22;66564;42.482;25.548;2024-03-07T04:01:05;6.37;72.03
77467;DHT22;66564;42.482;25.548;2024-03-07T04:03:33;6.45;71.93
77467;DHT22;66564;42.482;25.548;2024-03-07T04:06:01;6.21;72.57
77467;DHT22;66564;42.482;25.548;2024-03-07T04:08:32;6.30;72.39
77467;DHT22;66564;42.482;25.548;2024-03-07T04:10:57;6.27;72.31
77467;DHT22;66564;42.482;25.548;2024-03-07T04:13:25;6.25;72.51
77467;DHT22;66564;42.482;25.548;2024-03-07T04:15:51;6.27;72.44
77467;DHT22;66564;42.482;25.548;2024-03-07T04:18:16;6.17;72.56
77467;DHT22;66564;42.482;25.548;2024-03-07T04:20:42;6.28;72.38
77467;DHT22;66564;42.482;25.548;2024-03-07T04:23:09;6.34;72.18
77467;DHT22;66564;42.482;25.548;2024-03-07T04:25:35;6.32;72.14
77467;DHT22;66564;42.482;25.548;2024-03-07T04:28:00;6.37;71.85
77467;DHT22;66564;42.482;25.548;2024-03-07T04:30:28;6.28;71.92
77467;DHT22;66564;42.482;25.548;2024-03-07T04:32:54;6.31;71.79
77467;DHT22;66564;42.482;25.548;2024-03-07T04:35:23;6.32;71.94
77467;DHT22;66564;42.482;25.548;2024-03-07T04:37:49;6.31;71.69
77467;DHT22;66564;42.482;25.548;2024-03-07T04:40:15;6.35;71.53
77467;DHT22;66564;42.482;25.548;2024-03-07T04:42:50;6.27;71.94
77467;DHT22;66564;42.482;25.548;2024-03-07T04:45:16;6.30;71.88
77467;DHT22;66564;42.482;25.548;2024-03-07T04:47:42;6.34;71.81
77467;DHT22;66564;42.482;25.548;2024-03-07T04:50:09;6.28;71.80
77467;DHT22;66564;42.482;25.548;2024-03-07T04:52:39;6.28;71.99
77467;DHT22;66564;42.482;25.548;2024-03-07T04:55:09;6.32;71.59
77467;DHT22;66564;42.482;25.548;2024-03-07T04:57:39;6.40;71.47
77467;DHT22;66564;42.482;25.548;2024-03-07T05:00:07;6.30;71.60
77467;DHT22;66564;42.482;25.548;2024-03-07T05:02:32;6.31;71.49
77467;DHT22;66564;42.482;25.548;2024-03-07T05:04:59;6.17;71.80
77467;DHT22;66564;42.482;25.548;2024-03-07T05:07:24;6.10;72.03
77467;DHT22;66564;42.482;25.548;2024-03-07T05:09:49;6.14;72.11
77467;DHT22;66564;42.482;25.548;2024-03-07T05:12:15;6.13;72.17
77467;DHT22;66564;42.482;25.548;2024-03-07T05:14:40;6.03;72.18
77467;DHT22;66564;42.482;25.548;2024-03-07T05:17:06;6.08;72.41
77467;DHT22;66564;42.482;25.548;2024-03-07T05:19:34;6.16;72.09
77467;DHT22;66564;42.482;25.548;2024-03-07T05:21:59;6.28;71.84
77467;DHT22;66564;42.482;25.548;2024-03-07T05:24:25;6.31;71.45
77467;DHT22;66564;42.482;25.548;2024-03-07T05:26:50;6.21;71.50
77467;DHT22;66564;42.482;25.548;2024-03-07T05:29:18;6.32;71.56
77467;DHT22;66564;42.482;25.548;2024-03-07T05:31:47;6.20;71.45
77467;DHT22;66564;42.482;25.548;2024-03-07T05:34:16;6.22;71.60
77467;DHT22;66564;42.482;25.548;2024-03-07T05:36:47;6.24;71.37
77467;DHT22;66564;42.482;25.548;2024-03-07T05:39:14;6.18;71.53
77467;DHT22;66564;42.482;25.548;2024-03-07T05:41:42;6.13;71.64
77467;DHT22;66564;42.482;25.548;2024-03-07T05:44:08;6.16;71.82
77467;DHT22;66564;42.482;25.548;2024-03-07T05:46:43;6.04;71.87
77467;DHT22;66564;42.482;25.548;2024-03-07T05:49:16;5.98;72.27
77467;DHT22;66564;42.482;25.548;2024-03-07T05:51:42;6.10;72.30
77467;DHT22;66564;42.482;25.548;2024-03-07T05:54:12;6.16;72.36
77467;DHT22;66564;42.482;25.548;2024-03-07T05:56:39;6.14;72.41
77467;DHT22;66564;42.482;25.548;2024-03-07T05:59:08;5.96;72.99
77467;DHT22;66564;42.482;25.548;2024-03-07T06:01:39;6.00;72.80
77467;DHT22;66564;42.482;25.548;2024-03-07T06:04:06;5.91;72.86
77467;DHT22;66564;42.482;25.548;2024-03-07T06:06:33;6.01;72.91
77467;DHT22;66564;42.482;25.548;2024-03-07T06:09:03;6.06;72.56
77467;DHT22;66564;42.482;25.548;2024-03-07T06:11:38;5.87;73.10
77467;DHT22;66564;42.482;25.548;2024-03-07T06:14:05;5.89;72.78
77467;DHT22;66564;42.482;25.548;2024-03-07T06:16:33;6.01;72.43
77467;DHT22;66564;42.482;25.548;2024-03-07T06:19:02;6.08;72.30
77467;DHT22;66564;42.482;25.548;2024-03-07T06:21:31;6.00;72.44
77467;DHT22;66564;42.482;25.548;2024-03-07T06:23:57;6.04;72.05
77467;DHT22;66564;42.482;25.548;2024-03-07T06:26:29;5.94;72.34
77467;DHT22;66564;42.482;25.548;2024-03-07T06:29:24;6.08;71.85
77467;DHT22;66564;42.482;25.548;2024-03-07T06:31:51;6.18;71.72
77467;DHT22;66564;42.482;25.548;2024-03-07T06:34:22;6.01;71.89
77467;DHT22;66564;42.482;25.548;2024-03-07T06:36:47;6.08;71.54
77467;DHT22;66564;42.482;25.548;2024-03-07T06:39:13;5.94;72.03
77467;DHT22;66564;42.482;25.548;2024-03-07T06:41:41;6.07;72.06
77467;DHT22;66564;42.482;25.548;2024-03-07T06:44:10;5.98;71.73
77467;DHT22;66564;42.482;25.548;2024-03-07T06:46:38;6.03;71.65
77467;DHT22;66564;42.482;25.548;2024-03-07T06:49:03;6.10;71.28
77467;DHT22;66564;42.482;25.548;2024-03-07T06:51:31;6.07;71.18
77467;DHT22;66564;42.482;25.548;2024-03-07T06:53:59;6.00;71.52
77467;DHT22;66564;42.482;25.548;2024-03-07T06:56:27;5.86;71.94
77467;DHT22;66564;42.482;25.548;2024-03-07T06:58:53;5.86;72.08
77467;DHT22;66564;42.482;25.548;2024-03-07T07:01:21;5.94;71.96
77467;DHT22;66564;42.482;25.548;2024-03-07T07:03:47;6.00;71.81
77467;DHT22;66564;42.482;25.548;2024-03-07T07:06:12;5.98;71.75
77467;DHT22;66564;42.482;25.548;2024-03-07T07:08:41;5.89;72.09
77467;DHT22;66564;42.482;25.548;2024-03-07T07:11:07;5.90;72.14
77467;DHT22;66564;42.482;25.548;2024-03-07T07:13:33;5.94;72.06
77467;DHT22;66564;42.482;25.548;2024-03-07T07:16:01;5.84;72.53
77467;DHT22;66564;42.482;25.548;2024-03-07T07:18:26;5.69;73.66
77467;DHT22;66564;42.482;25.548;2024-03-07T07:20:51;5.81;73.49
77467;DHT22;66564;42.482;25.548;2024-03-07T07:23:23;5.76;74.19
77467;DHT22;66564;42.482;25.548;2024-03-07T07:25:50;5.74;74.40
77467;DHT22;66564;42.482;25.548;2024-03-07T07:28:16;5.71;74.68
77467;DHT22;66564;42.482;25.548;2024-03-07T07:30:42;5.74;74.92
77467;DHT22;66564;42.482;25.548;2024-03-07T07:33:07;5.73;75.04
77467;DHT22;66564;42.482;25.548;2024-03-07T07:35:33;5.66;75.54
77467;DHT22;66564;42.482;25.548;2024-03-07T07:38:00;5.66;75.90
77467;DHT22;66564;42.482;25.548;2024-03-07T07:40:28;5.71;76.04
77467;DHT22;66564;42.482;25.548;2024-03-07T07:42:56;5.66;76.47
77467;DHT22;66564;42.482;25.548;2024-03-07T07:45:22;5.59;77.26
77467;DHT22;66564;42.482;25.548;2024-03-07T07:47:49;5.53;77.72
77467;DHT22;66564;42.482;25.548;2024-03-07T07:50:19;5.57;77.88
77467;DHT22;66564;42.482;25.548;2024-03-07T07:52:46;5.50;78.65
77467;DHT22;66564;42.482;25.548;2024-03-07T07:55:33;5.50;78.78
77467;DHT22;66564;42.482;25.548;2024-03-07T07:58:02;5.66;78.34
77467;DHT22;66564;42.482;25.548;2024-03-07T08:00:31;5.66;78.72
77467;DHT22;66564;42.482;25.548;2024-03-07T08:05:33;5.80;78.22
77467;DHT22;66564;42.482;25.548;2024-03-07T08:08:06;5.81;78.33
77467;DHT22;66564;42.482;25.548;2024-03-07T08:10:33;5.76;79.12
77467;DHT22;66564;42.482;25.548;2024-03-07T08:13:00;5.80;79.03
77467;DHT22;66564;42.482;25.548;2024-03-07T08:15:27;5.78;78.71
77467;DHT22;66564;42.482;25.548;2024-03-07T08:17:53;5.80;79.62
77467;DHT22;66564;42.482;25.548;2024-03-07T08:20:20;5.86;78.79
77467;DHT22;66564;42.482;25.548;2024-03-07T08:22:48;5.81;79.08
77467;DHT22;66564;42.482;25.548;2024-03-07T08:25:17;5.77;79.13
77467;DHT22;66564;42.482;25.548;2024-03-07T08:27:45;5.71;79.18
77467;DHT22;66564;42.482;25.548;2024-03-07T08:30:14;5.73;78.78
77467;DHT22;66564;42.482;25.548;2024-03-07T08:32:40;5.59;79.34
77467;DHT22;66564;42.482;25.548;2024-03-07T08:35:06;5.71;79.30
77467;DHT22;66564;42.482;25.548;2024-03-07T08:37:38;5.66;79.70
77467;DHT22;66564;42.482;25.548;2024-03-07T08:40:05;5.77;79.30
77467;DHT22;66564;42.482;25.548;2024-03-07T08:42:33;5.77;79.49
77467;DHT22;66564;42.482;25.548;2024-03-07T08:45:00;5.84;79.08
77467;DHT22;66564;42.482;25.548;2024-03-07T08:47:28;5.76;79.68
77467;DHT22;66564;42.482;25.548;2024-03-07T08:49:54;5.78;79.35
77467;DHT22;66564;42.482;25.548;2024-03-07T08:52:22;5.77;79.59
77467;DHT22;66564;42.482;25.548;2024-03-07T08:54:48;5.81;79.39
77467;DHT22;66564;42.482;25.548;2024-03-07T08:57:13;5.81;78.90
77467;DHT22;66564;42.482;25.548;2024-03-07T08:59:42;5.67;79.80
77467;DHT22;66564;42.482;25.548;2024-03-07T09:02:11;5.53;80.46
77467;DHT22;66564;42.482;25.548;2024-03-07T09:04:39;5.54;80.08
77467;DHT22;66564;42.482;25.548;2024-03-07T09:07:06;5.47;80.42
77467;DHT22;66564;42.482;25.548;2024-03-07T09:09:32;5.47;80.35
77467;DHT22;66564;42.482;25.548;2024-03-07T09:12:01;5.36;80.97
77467;DHT22;66564;42.482;25.548;2024-03-07T09:14:28;5.36;81.03
77467;DHT22;66564;42.482;25.548;2024-03-07T09:16:54;5.46;81.05
77467;DHT22;66564;42.482;25.548;2024-03-07T09:19:20;5.50;80.72
77467;DHT22;66564;42.482;25.548;2024-03-07T09:21:51;5.57;80.71
77467;DHT22;66564;42.482;25.548;2024-03-07T09:24:19;5.60;80.08
77467;DHT22;66564;42.482;25.548;2024-03-07T09:26:54;5.64;80.30
77467;DHT22;66564;42.482;25.548;2024-03-07T09:29:22;5.71;80.01
77467;DHT22;66564;42.482;25.548;2024-03-07T09:31:50;5.74;79.59
77467;DHT22;66564;42.482;25.548;2024-03-07T09:34:21;5.64;79.36
77467;DHT22;66564;42.482;25.548;2024-03-07T09:36:47;5.66;79.75
77467;DHT22;66564;42.482;25.548;2024-03-07T09:39:12;5.67;79.31
77467;DHT22;66564;42.482;25.548;2024-03-07T09:41:38;5.71;79.23
77467;DHT22;66564;42.482;25.548;2024-03-07T09:44:12;5.71;79.43
77467;DHT22;66564;42.482;25.548;2024-03-07T09:46:41;5.74;79.24
77467;DHT22;66564;42.482;25.548;2024-03-07T09:49:06;5.70;79.55
77467;DHT22;66564;42.482;25.548;2024-03-07T09:51:34;5.76;79.65
77467;DHT22;66564;42.482;25.548;2024-03-07T09:54:03;5.78;79.47
77467;DHT22;66564;42.482;25.548;2024-03-07T09:56:31;5.78;79.39
77467;DHT22;66564;42.482;25.548;2024-03-07T09:58:58;5.60;79.57
77467;DHT22;66564;42.482;25.548;2024-03-07T10:01:33;5.63;79.67
77467;DHT22;66564;42.482;25.548;2024-03-07T10:04:01;5.70;79.50
77467;DHT22;66564;42.482;25.548;2024-03-07T10:06:30;5.69;79.55
77467;DHT22;66564;42.482;25.548;2024-03-07T10:09:00;5.47;79.87
77467;DHT22;66564;42.482;25.548;2024-03-07T10:11:29;5.56;79.93
77467;DHT22;66564;42.482;25.548;2024-03-07T10:13:55;5.70;79.61
77467;DHT22;66564;42.482;25.548;2024-03-07T10:16:20;5.76;79.70
77467;DHT22;66564;42.482;25.548;2024-03-07T10:18:49;5.83;79.42
77467;DHT22;66564;42.482;25.548;2024-03-07T10:21:21;5.87;79.11
77467;DHT22;66564;42.482;25.548;2024-03-07T10:23:50;5.87;79.27
77467;DHT22;66564;42.482;25.548;2024-03-07T10:26:18;5.81;79.61
77467;DHT22;66564;42.482;25.548;2024-03-07T10:28:45;5.84;79.30
77467;DHT22;66564;42.482;25.548;2024-03-07T10:31:10;5.84;79.38
77467;DHT22;66564;42.482;25.548;2024-03-07T10:33:40;5.86;79.79
77467;DHT22;66564;42.482;25.548;2024-03-07T10:36:12;5.78;79.79
77467;DHT22;66564;42.482;25.548;2024-03-07T10:38:40;5.89;79.67
77467;DHT22;66564;42.482;25.548;2024-03-07T10:41:06;5.81;80.29
77467;DHT22;66564;42.482;25.548;2024-03-07T10:43:40;5.78;79.93
77467;DHT22;66564;42.482;25.548;2024-03-07T10:46:10;5.76;80.06
77467;DHT22;66564;42.482;25.548;2024-03-07T10:48:38;5.73;80.36
77467;DHT22;66564;42.482;25.548;2024-03-07T10:59:29;5.81;79.80
77467;DHT22;66564;42.482;25.548;2024-03-07T11:04:50;5.87;79.84
77467;DHT22;66564;42.482;25.548;2024-03-07T11:07:19;5.93;80.28
77467;DHT22;66564;42.482;25.548;2024-03-07T11:09:52;6.00;80.03
77467;DHT22;66564;42.482;25.548;2024-03-07T11:12:24;5.97;80.09
77467;DHT22;66564;42.482;25.548;2024-03-07T11:14:56;6.01;79.65
77467;DHT22;66564;42.482;25.548;2024-03-07T11:17:28;5.97;79.64
77467;DHT22;66564;42.482;25.548;2024-03-07T11:20:20;6.03;79.66
77467;DHT22;66564;42.482;25.548;2024-03-07T11:22:50;5.96;80.07
77467;DHT22;66564;42.482;25.548;2024-03-07T11:25:21;5.90;80.23
77467;DHT22;66564;42.482;25.548;2024-03-07T11:28:01;5.67;81.26
77467;DHT22;66564;42.482;25.548;2024-03-07T11:30:27;5.76;81.32
77467;DHT22;66564;42.482;25.548;2024-03-07T11:32:54;5.81;81.27
77467;DHT22;66564;42.482;25.548;2024-03-07T11:35:22;5.84;80.92
77467;DHT22;66564;42.482;25.548;2024-03-07T11:38:11;5.84;81.08
77467;DHT22;66564;42.482;25.548;2024-03-07T11:43:03;5.87;80.90
77467;DHT22;66564;42.482;25.548;2024-03-07T11:45:32;5.98;80.58
77467;DHT22;66564;42.482;25.548;2024-03-07T11:48:04;6.04;80.39
77467;DHT22;66564;42.482;25.548;2024-03-07T11:50:34;5.96;80.67
77467;DHT22;66564;42.482;25.548;2024-03-07T11:53:03;6.08;80.47
77467;DHT22;66564;42.482;25.548;2024-03-07T11:55:39;6.03;80.78
77467;DHT22;66564;42.482;25.548;2024-03-07T11:58:18;6.10;80.31
77467;DHT22;66564;42.482;25.548;2024-03-07T12:00:52;6.16;79.98
77467;DHT22;66564;42.482;25.548;2024-03-07T12:03:19;6.03;80.25
77467;DHT22;66564;42.482;25.548;2024-03-07T12:05:49;6.06;80.23
77467;DHT22;66564;42.482;25.548;2024-03-07T12:08:18;6.14;80.36
77467;DHT22;66564;42.482;25.548;2024-03-07T12:10:48;6.24;80.11
77467;DHT22;66564;42.482;25.548;2024-03-07T12:13:17;6.22;80.36
77467;DHT22;66564;42.482;25.548;2024-03-07T12:15:45;6.34;80.00
77467;DHT22;66564;42.482;25.548;2024-03-07T12:18:11;6.37;80.16
77467;DHT22;66564;42.482;25.548;2024-03-07T12:20:41;6.32;80.09
77467;DHT22;66564;42.482;25.548;2024-03-07T12:23:07;6.35;80.14
77467;DHT22;66564;42.482;25.548;2024-03-07T12:25:37;6.37;79.85
77467;DHT22;66564;42.482;25.548;2024-03-07T12:28:04;6.34;79.88
77467;DHT22;66564;42.482;25.548;2024-03-07T12:30:50;6.41;79.38
77467;DHT22;66564;42.482;25.548;2024-03-07T12:33:17;6.10;80.25
77467;DHT22;66564;42.482;25.548;2024-03-07T12:35:44;6.14;80.69
77467;DHT22;66564;42.482;25.548;2024-03-07T12:38:13;6.14;80.66
77467;DHT22;66564;42.482;25.548;2024-03-07T12:40:44;6.13;80.53
77467;DHT22;66564;42.482;25.548;2024-03-07T12:43:20;6.16;80.71
77467;DHT22;66564;42.482;25.548;2024-03-07T12:45:52;6.00;81.09
77467;DHT22;66564;42.482;25.548;2024-03-07T12:48:20;6.04;80.92
77467;DHT22;66564;42.482;25.548;2024-03-07T12:50:53;6.00;81.17
77467;DHT22;66564;42.482;25.548;2024-03-07T12:53:22;6.13;80.90
77467;DHT22;66564;42.482;25.548;2024-03-07T12:55:50;6.16;81.00
77467;DHT22;66564;42.482;25.548;2024-03-07T12:58:20;6.14;80.03
77467;DHT22;66564;42.482;25.548;2024-03-07T13:00:48;6.16;79.79
77467;DHT22;66564;42.482;25.548;2024-03-07T13:03:13;6.21;80.11
77467;DHT22;66564;42.482;25.548;2024-03-07T13:05:41;5.94;79.58
77467;DHT22;66564;42.482;25.548;2024-03-07T13:08:11;5.89;80.08
77467;DHT22;66564;42.482;25.548;2024-03-07T13:10:43;6.06;80.47
77467;DHT22;66564;42.482;25.548;2024-03-07T13:13:09;6.14;80.86
77467;DHT22;66564;42.482;25.548;2024-03-07T13:15:36;6.17;81.03
77467;DHT22;66564;42.482;25.548;2024-03-07T13:18:03;6.22;81.00
77467;DHT22;66564;42.482;25.548;2024-03-07T13:20:31;6.34;80.63
77467;DHT22;66564;42.482;25.548;2024-03-07T13:22:59;6.18;80.11
77467;DHT22;66564;42.482;25.548;2024-03-07T13:25:27;6.27;80.18
77467;DHT22;66564;42.482;25.548;2024-03-07T13:30:21;6.24;80.38
77467;DHT22;66564;42.482;25.548;2024-03-07T13:33:02;6.31;80.16
77467;DHT22;66564;42.482;25.548;2024-03-07T13:35:28;6.40;79.86
77467;DHT22;66564;42.482;25.548;2024-03-07T13:37:55;6.38;79.64
77467;DHT22;66564;42.482;25.548;2024-03-07T13:40:22;6.28;80.22
77467;DHT22;66564;42.482;25.548;2024-03-07T13:42:57;6.22;80.26
77467;DHT22;66564;42.482;25.548;2024-03-07T13:45:28;6.21;80.50
77467;DHT22;66564;42.482;25.548;2024-03-07T13:47:57;6.27;80.58
77467;DHT22;66564;42.482;25.548;2024-03-07T13:50:28;6.30;80.53
77467;DHT22;66564;42.482;25.548;2024-03-07T13:52:55;6.30;80.33
77467;DHT22;66564;42.482;25.548;2024-03-07T13:55:55;6.14;80.65
77467;DHT22;66564;42.482;25.548;2024-03-07T14:12:34;6.14;81.26
77467;DHT22;66564;42.482;25.548;2024-03-07T14:27:25;6.07;81.53
77467;DHT22;66564;42.482;25.548;2024-03-07T14:33:00;5.84;82.25
77467;DHT22;66564;42.482;25.548;2024-03-07T14:36:14;5.83;82.37
77467;DHT22;66564;42.482;25.548;2024-03-07T14:38:28;5.64;82.64
77467;DHT22;66564;42.482;25.548;2024-03-07T14:40:55;5.71;82.89
77467;DHT22;66564;42.482;25.548;2024-03-07T14:43:21;5.64;83.01
77467;DHT22;66564;42.482;25.548;2024-03-07T14:45:47;5.71;82.91
77467;DHT22;66564;42.482;25.548;2024-03-07T14:48:17;5.64;83.34
77467;DHT22;66564;42.482;25.548;2024-03-07T14:50:45;5.63;83.67
77467;DHT22;66564;42.482;25.548;2024-03-07T14:53:12;5.71;83.24
77467;DHT22;66564;42.482;25.548;2024-03-07T14:55:39;5.71;83.27
77467;DHT22;66564;42.482;25.548;2024-03-07T14:58:06;5.80;83.31
77467;DHT22;66564;42.482;25.548;2024-03-07T15:00:36;5.90;82.95
77467;DHT22;66564;42.482;25.548;2024-03-07T15:03:08;5.90;82.74
77467;DHT22;66564;42.482;25.548;2024-03-07T15:05:35;5.89;82.97
77467;DHT22;66564;42.482;25.548;2024-03-07T15:08:01;5.83;82.89
77467;DHT22;66564;42.482;25.548;2024-03-07T15:10:34;5.94;82.74
77467;DHT22;66564;42.482;25.548;2024-03-07T15:13:00;5.97;82.66
77467;DHT22;66564;42.482;25.548;2024-03-07T15:15:29;5.94;82.59
77467;DHT22;66564;42.482;25.548;2024-03-07T15:17:58;5.91;82.72
77467;DHT22;66564;42.482;25.548;2024-03-07T15:20:25;5.90;82.46
77467;DHT22;66564;42.482;25.548;2024-03-07T15:22:56;5.90;82.61
77467;DHT22;66564;42.482;25.548;2024-03-07T15:25:26;5.97;82.40
77467;DHT22;66564;42.482;25.548;2024-03-07T15:27:53;5.91;82.64
77467;DHT22;66564;42.482;25.548;2024-03-07T15:30:25;5.94;82.72
77467;DHT22;66564;42.482;25.548;2024-03-07T15:32:58;5.94;82.61
77467;DHT22;66564;42.482;25.548;2024-03-07T15:35:26;6.07;82.54
77467;DHT22;66564;42.482;25.548;2024-03-07T15:37:52;6.10;82.23
77467;DHT22;66564;42.482;25.548;2024-03-07T15:40:20;6.08;82.20
77467;DHT22;66564;42.482;25.548;2024-03-07T15:42:50;6.13;81.88
77467;DHT22;66564;42.482;25.548;2024-03-07T15:45:23;5.97;82.20
77467;DHT22;66564;42.482;25.548;2024-03-07T15:47:54;6.00;82.39
77467;DHT22;66564;42.482;25.548;2024-03-07T15:50:22;5.94;82.59
77467;DHT22;66564;42.482;25.548;2024-03-07T15:52:50;6.01;82.60
77467;DHT22;66564;42.482;25.548;2024-03-07T15:55:20;6.06;82.37
77467;DHT22;66564;42.482;25.548;2024-03-07T15:57:55;6.06;82.35
77467;DHT22;66564;42.482;25.548;2024-03-07T16:00:24;6.03;82.13
77467;DHT22;66564;42.482;25.548;2024-03-07T16:05:28;6.11;81.81
77467;DHT22;66564;42.482;25.548;2024-03-07T16:07:56;6.14;81.08
77467;DHT22;66564;42.482;25.548;2024-03-07T16:10:23;6.16;81.42
77467;DHT22;66564;42.482;25.548;2024-03-07T16:12:53;6.13;81.45
77467;DHT22;66564;42.482;25.548;2024-03-07T16:15:20;6.20;81.30
77467;DHT22;66564;42.482;25.548;2024-03-07T16:17:48;6.04;81.99
77467;DHT22;66564;42.482;25.548;2024-03-07T16:20:14;6.03;82.16
77467;DHT22;66564;42.482;25.548;2024-03-07T16:22:44;6.00;82.01
77467;DHT22;66564;42.482;25.548;2024-03-07T16:25:13;5.91;82.33
77467;DHT22;66564;42.482;25.548;2024-03-07T16:27:43;5.90;82.65